Time;durP1;ratioP1;P1;durP2;ratioP2;P2;SDS_P1;SDS_P2;PMS_P1;PMS_P2;Temp;Humidity;BMP_temperature;BMP_pressure;BME280_temperature;BME280_humidity;BME280_pressure;Samples;Min_cycle;Max_cycle;Signal;HPM_P1;HPM_P2
2020/12/23 00:01:21;;;;;;;21.52;11.03;;;;;;;-2.16;89.09;99668.13;1768075;81;21478;-67
2020/12/23 00:03:49;;;;;;;23.65;12.68;;;;;;;-2.22;88.26;99633.55;1756312;81;21564;-69
2020/12/23 00:06:16;;;;;;;25.82;11.93;;;;;;;-2.24;88.26;99662.88;1749756;82;21038;-68
2020/12/23 00:08:44;;;;;;;24.30;12.43;;;;;;;-2.24;88.02;99651.15;1749889;82;21414;-67
2020/12/23 00:11:16;;;;;;;24.87;12.60;;;;;;;-2.19;87.98;99637.19;1749915;82;21038;-66
2020/12/23 00:13:44;;;;;;;28.70;14.75;;;;;;;-2.16;87.91;99643.21;1749693;81;21030;-67
2020/12/23 00:16:12;;;;;;;27.05;13.72;;;;;;;-2.15;87.86;99638.67;1749712;81;21086;-66
2020/12/23 00:18:41;;;;;;;30.10;14.33;;;;;;;-2.12;87.91;99640.14;1750001;82;21457;-67
2020/12/23 00:21:09;;;;;;;26.20;13.05;;;;;;;-2.09;87.87;99657.66;1749831;82;21054;-70
2020/12/23 00:23:36;;;;;;;21.60;12.20;;;;;;;-2.04;88.09;99651.68;1749670;82;21066;-66
2020/12/23 00:26:09;;;;;;;21.73;11.97;;;;;;;-2.10;88.61;99634.42;1750008;81;21204;-67
2020/12/23 00:28:36;;;;;;;22.45;11.50;;;;;;;-2.25;89.64;99656.08;1749916;82;21011;-67
2020/12/23 00:31:04;;;;;;;22.70;12.23;;;;;;;-2.39;90.46;99615.92;1750116;82;21034;-68
2020/12/23 00:33:31;;;;;;;26.05;13.03;;;;;;;-2.44;90.80;99615.58;1749968;82;21067;-68
2020/12/23 00:36:00;;;;;;;25.45;12.90;;;;;;;-2.49;91.10;99595.41;1749657;82;21042;-67
2020/12/23 00:38:27;;;;;;;28.80;14.98;;;;;;;-2.54;91.09;99631.23;1749973;82;21883;-66
2020/12/23 00:40:55;;;;;;;24.20;13.62;;;;;;;-2.55;91.36;99601.66;1749761;82;21058;-65
2020/12/23 00:43:22;;;;;;;24.45;13.22;;;;;;;-2.53;91.35;99603.53;1749975;82;21606;-69
2020/12/23 00:45:50;;;;;;;27.22;14.18;;;;;;;-2.45;91.01;99590.19;1749649;82;21002;-68
2020/12/23 00:48:17;;;;;;;27.75;13.08;;;;;;;-2.36;90.82;99595.04;1748636;80;21043;-70
2020/12/23 00:50:45;;;;;;;24.43;12.15;;;;;;;-2.29;90.29;99599.73;1779625;80;21074;-66
2020/12/23 00:53:12;;;;;;;28.73;12.85;;;;;;;-2.33;90.25;99568.32;1750450;80;21082;-67
2020/12/23 00:55:40;;;;;;;27.30;12.98;;;;;;;-2.42;90.43;99567.30;1780657;80;21007;-67
2020/12/23 00:58:08;;;;;;;24.72;12.33;;;;;;;-2.47;90.67;99575.28;1780765;80;21604;-68
2020/12/23 01:00:36;;;;;;;26.12;13.00;;;;;;;-2.46;90.83;99596.02;1780691;80;21101;-67
2020/12/23 01:03:03;;;;;;;23.45;11.25;;;;;;;-2.53;90.59;99595.95;1781234;80;21533;-67
2020/12/23 01:05:31;;;;;;;22.90;11.93;;;;;;;-2.63;90.93;99584.29;1783498;80;21543;-67
2020/12/23 01:07:58;;;;;;;24.85;13.03;;;;;;;-2.64;90.96;99587.98;1783487;80;21082;-70
2020/12/23 01:10:26;;;;;;;22.60;10.28;;;;;;;-2.61;91.00;99561.67;1783465;80;21050;-70
2020/12/23 01:12:53;;;;;;;24.30;11.83;;;;;;;-2.63;90.85;99589.73;1783288;80;21070;-67
2020/12/23 01:15:21;;;;;;;23.90;11.68;;;;;;;-2.64;90.78;99556.41;1783481;80;21047;-68
2020/12/23 01:17:48;;;;;;;24.55;12.18;;;;;;;-2.63;90.56;99577.10;1783276;80;21079;-66
2020/12/23 01:20:16;;;;;;;24.15;11.60;;;;;;;-2.62;90.67;99538.06;1783410;80;21086;-67
2020/12/23 01:22:44;;;;;;;25.70;12.40;;;;;;;-2.59;90.56;99571.52;1783555;80;21580;-67
2020/12/23 01:25:11;;;;;;;23.10;11.20;;;;;;;-2.56;90.58;99532.95;1783383;80;21031;-67
2020/12/23 01:27:40;;;;;;;20.35;10.90;;;;;;;-2.51;90.40;99535.03;1783562;80;21497;-66
2020/12/23 01:30:07;;;;;;;20.85;11.03;;;;;;;-2.46;90.18;99536.24;1783359;80;21042;-68
2020/12/23 01:32:35;;;;;;;23.15;10.18;;;;;;;-2.37;89.93;99556.61;1783441;80;21027;-66
2020/12/23 01:35:03;;;;;;;24.95;10.45;;;;;;;-2.34;89.73;99523.61;1783435;80;21189;-68
2020/12/23 01:37:30;;;;;;;21.97;9.95;;;;;;;-2.26;89.56;99532.99;1783624;80;21576;-67
2020/12/23 01:39:58;;;;;;;22.65;10.35;;;;;;;-2.25;89.36;99532.21;1783523;80;21066;-66
2020/12/23 01:42:25;;;;;;;23.62;10.65;;;;;;;-2.28;89.46;99526.95;1783326;80;21071;-66
2020/12/23 01:44:53;;;;;;;24.43;12.20;;;;;;;-2.35;89.67;99508.32;1783573;80;21189;-67
2020/12/23 01:47:22;;;;;;;19.77;9.65;;;;;;;-2.38;89.84;99525.41;1783692;80;21461;-66
2020/12/23 01:49:50;;;;;;;22.48;9.43;;;;;;;-2.38;89.88;99520.75;1770785;80;21084;-67
2020/12/23 01:52:18;;;;;;;19.98;10.88;;;;;;;-2.41;90.00;99517.62;1767940;81;21007;-65
2020/12/23 01:54:49;;;;;;;20.08;11.28;;;;;;;-2.40;90.17;99469.69;1768065;81;21063;-69
2020/12/23 01:57:17;;;;;;;21.80;11.15;;;;;;;-2.38;90.06;99475.25;1768233;81;21023;-68
2020/12/23 01:59:49;;;;;;;19.82;9.23;;;;;;;-2.33;90.06;99495.41;1768350;81;21005;-68
2020/12/23 02:02:33;;;;;;;23.75;12.50;;;;;;;-2.31;90.00;99505.25;1768399;81;21457;-70
2020/12/23 02:05:04;;;;;;;18.55;9.95;;;;;;;-2.32;90.21;99497.16;1751805;81;21090;-67
2020/12/23 02:07:33;;;;;;;23.50;11.15;;;;;;;-2.28;90.24;99499.14;1750231;82;21010;-67
2020/12/23 02:10:05;;;;;;;22.13;10.85;;;;;;;-2.27;90.13;99475.60;1750152;82;21018;-67
2020/12/23 02:12:33;;;;;;;22.27;10.43;;;;;;;-2.25;90.19;99472.80;1749989;82;21200;-67
2020/12/23 02:15:12;;;;;;;23.00;11.75;;;;;;;-2.27;90.29;99480.66;1750214;82;21473;-67
2020/12/23 02:17:41;;;;;;;25.30;11.45;;;;;;;-2.26;90.49;99483.70;1750082;82;21441;-68
2020/12/23 02:20:12;;;;;;;22.58;10.55;;;;;;;-2.28;90.64;99461.22;1750008;82;21133;-68
2020/12/23 02:22:42;;;;;;;19.42;10.72;;;;;;;-2.29;90.79;99465.41;1750315;82;21234;-67
2020/12/23 02:25:10;;;;;;;26.15;13.45;;;;;;;-2.30;90.99;99480.45;1750190;82;21583;-67
2020/12/23 02:27:38;;;;;;;25.15;11.65;;;;;;;-2.31;91.12;99480.84;1750154;82;21496;-69
2020/12/23 02:30:08;;;;;;;22.27;11.03;;;;;;;-2.28;91.17;99462.48;1749889;82;21183;-66
2020/12/23 02:32:37;;;;;;;22.42;11.60;;;;;;;-2.28;91.21;99470.07;1750122;82;21050;-67
2020/12/23 02:35:07;;;;;;;26.75;12.90;;;;;;;-2.30;91.38;99469.08;1750137;82;21433;-68
2020/12/23 02:37:35;;;;;;;25.10;11.25;;;;;;;-2.32;91.54;99468.09;1750152;82;21018;-66
2020/12/23 02:40:05;;;;;;;28.30;13.03;;;;;;;-2.28;91.56;99442.27;1750080;82;21046;-68
2020/12/23 02:42:33;;;;;;;27.87;13.08;;;;;;;-2.25;91.56;99462.30;1750344;82;21046;-67
2020/12/23 02:45:01;;;;;;;27.87;13.83;;;;;;;-2.25;91.48;99458.90;1749845;82;21038;-69
2020/12/23 02:47:28;;;;;;;26.33;12.65;;;;;;;-2.25;91.54;99452.19;1749943;82;21046;-67
2020/12/23 02:49:56;;;;;;;26.73;13.75;;;;;;;-2.22;91.49;99435.09;1749872;82;21042;-68
2020/12/23 02:52:23;;;;;;;27.27;11.60;;;;;;;-2.20;91.26;99433.55;1750103;82;21485;-66
2020/12/23 02:54:53;;;;;;;28.67;15.05;;;;;;;-2.20;91.22;99420.91;1749788;82;21468;-68
2020/12/23 02:57:20;;;;;;;30.20;13.78;;;;;;;-2.20;91.28;99444.53;1749846;82;21165;-69
2020/12/23 02:59:48;;;;;;;35.68;15.40;;;;;;;-2.19;91.33;99458.05;1750022;82;21108;-66
2020/12/23 03:02:15;;;;;;;27.87;12.58;;;;;;;-2.21;91.40;99448.23;1749854;82;21181;-66
2020/12/23 03:04:45;;;;;;;34.10;15.83;;;;;;;-2.21;91.48;99437.73;1746654;80;21185;-66
2020/12/23 03:07:12;;;;;;;34.58;15.85;;;;;;;-2.20;91.41;99461.36;1750045;82;21010;-66
2020/12/23 03:09:40;;;;;;;33.35;15.72;;;;;;;-2.17;91.43;99438.81;1750000;82;21087;-66
2020/12/23 03:12:08;;;;;;;31.15;15.68;;;;;;;-2.14;91.33;99413.73;1750022;81;21026;-67
2020/12/23 03:14:36;;;;;;;33.73;16.35;;;;;;;-2.11;91.21;99425.34;1750191;82;21417;-66
2020/12/23 03:17:04;;;;;;;36.40;16.62;;;;;;;-2.11;91.16;99407.64;1750074;82;21042;-66
2020/12/23 03:19:31;;;;;;;32.15;15.83;;;;;;;-2.13;91.29;99409.19;1749938;81;21025;-66
2020/12/23 03:21:59;;;;;;;34.65;16.40;;;;;;;-2.13;91.17;99394.02;1749930;82;21045;-66
2020/12/23 03:24:27;;;;;;;33.10;15.88;;;;;;;-2.12;91.20;99418.52;1750100;82;21429;-68
2020/12/23 03:26:54;;;;;;;33.08;16.40;;;;;;;-2.12;91.25;99417.25;1749884;82;21022;-67
2020/12/23 03:29:22;;;;;;;32.17;15.10;;;;;;;-2.07;91.22;99403.27;1750042;82;21058;-66
2020/12/23 03:31:49;;;;;;;31.25;15.93;;;;;;;-1.95;90.94;99426.38;1749784;82;21042;-67
2020/12/23 03:34:17;;;;;;;32.60;14.78;;;;;;;-1.95;90.43;99431.44;1750088;82;21047;-67
2020/12/23 03:36:44;;;;;;;32.38;14.38;;;;;;;-1.97;90.58;99392.99;1749994;81;21204;-67
2020/12/23 03:39:12;;;;;;;34.43;16.10;;;;;;;-2.01;90.61;99385.99;1750108;82;21168;-67
2020/12/23 03:41:39;;;;;;;32.08;14.93;;;;;;;-1.99;90.68;99408.45;1750091;82;21426;-67
2020/12/23 03:44:08;;;;;;;30.40;14.47;;;;;;;-1.96;90.55;99382.48;1749973;82;21058;-68
2020/12/23 03:46:35;;;;;;;30.37;14.50;;;;;;;-1.89;90.41;99404.02;1749789;82;21054;-67
2020/12/23 03:49:03;;;;;;;32.48;15.30;;;;;;;-1.91;90.36;99391.25;1750011;81;21006;-66
2020/12/23 03:51:31;;;;;;;27.75;13.93;;;;;;;-1.95;90.43;99421.32;1750079;82;21413;-67
2020/12/23 03:53:58;;;;;;;27.22;13.75;;;;;;;-2.02;90.63;99385.48;1750042;82;21141;-67
2020/12/23 03:56:26;;;;;;;30.15;13.85;;;;;;;-2.05;90.86;99405.52;1750028;82;21469;-65
2020/12/23 03:58:53;;;;;;;26.80;12.98;;;;;;;-2.04;90.89;99351.63;1750101;82;21445;-67
2020/12/23 04:01:21;;;;;;;25.23;12.33;;;;;;;-2.01;90.95;99363.59;1750059;82;21050;-66
2020/12/23 04:03:48;;;;;;;27.67;12.80;;;;;;;-1.98;90.79;99362.16;1749680;80;21090;-66
2020/12/23 04:06:16;;;;;;;30.27;13.18;;;;;;;-1.96;90.80;99378.69;1750039;81;21101;-66
2020/12/23 04:08:44;;;;;;;28.60;13.05;;;;;;;-1.92;90.73;99391.17;1749910;82;21046;-66
2020/12/23 04:11:11;;;;;;;25.02;13.58;;;;;;;-1.91;90.67;99385.33;1749998;82;20991;-67
2020/12/23 04:13:39;;;;;;;25.90;13.95;;;;;;;-1.89;90.61;99318.02;1750017;82;21034;-67
2020/12/23 04:16:08;;;;;;;30.12;13.80;;;;;;;-1.87;90.47;99389.83;1749794;81;21569;-68
2020/12/23 04:18:35;;;;;;;26.42;13.80;;;;;;;-1.90;90.60;99387.09;1750017;81;21007;-66
2020/12/23 04:21:03;;;;;;;26.50;13.15;;;;;;;-1.91;90.66;99361.30;1750041;82;21492;-66
2020/12/23 04:23:30;;;;;;;26.80;13.08;;;;;;;-1.89;90.69;99361.02;1749877;82;21074;-67
2020/12/23 04:25:58;;;;;;;28.55;13.08;;;;;;;-1.86;90.70;99361.21;1749786;82;21034;-66
2020/12/23 04:28:25;;;;;;;25.80;12.70;;;;;;;-1.82;90.48;99343.81;1750058;82;21129;-67
2020/12/23 04:30:53;;;;;;;23.25;12.25;;;;;;;-1.84;90.39;99359.66;1750174;81;21425;-66
2020/12/23 04:33:20;;;;;;;22.62;12.23;;;;;;;-1.82;90.47;99379.62;1749937;82;21058;-68
2020/12/23 04:35:49;;;;;;;24.92;13.00;;;;;;;-1.85;90.45;99355.40;1747710;82;21018;-67
2020/12/23 04:38:17;;;;;;;26.42;13.38;;;;;;;-1.85;90.49;99362.59;1749740;82;21038;-67
2020/12/23 04:40:46;;;;;;;31.42;12.75;;;;;;;-1.82;90.47;99374.17;1749997;82;21050;-67
2020/12/23 04:43:13;;;;;;;21.90;11.83;;;;;;;-1.82;90.36;99370.38;1750055;82;21070;-67
2020/12/23 04:45:42;;;;;;;26.27;12.82;;;;;;;-1.79;90.38;99365.91;1749684;82;21500;-66
2020/12/23 04:48:13;;;;;;;26.02;12.00;;;;;;;-1.75;90.13;99348.91;1721048;82;21058;-67
2020/12/23 04:50:48;;;;;;;28.35;14.10;;;;;;;-1.75;89.91;99385.59;1750041;82;21444;-67
2020/12/23 04:53:13;;;;;;;26.35;12.75;;;;;;;-1.84;90.21;99358.41;1749454;82;21611;-66
2020/12/23 04:55:43;;;;;;;22.73;11.55;;;;;;;-1.86;90.39;99352.36;1749944;82;21026;-66
2020/12/23 04:58:11;;;;;;;26.68;13.55;;;;;;;-1.85;90.25;99364.25;1749911;82;21046;-66
2020/12/23 05:00:39;;;;;;;25.10;12.65;;;;;;;-1.85;90.22;99326.31;1710325;82;21224;-68
2020/12/23 05:03:07;;;;;;;25.23;13.58;;;;;;;-1.89;90.26;99364.41;1729879;82;21176;-67
2020/12/23 05:05:35;;;;;;;28.80;13.18;;;;;;;-1.81;90.33;99337.09;1763726;80;21030;-65
2020/12/23 05:08:03;;;;;;;27.85;12.58;;;;;;;-1.77;89.99;99316.30;1768326;81;21446;-66
2020/12/23 05:10:31;;;;;;;23.75;11.75;;;;;;;-1.76;89.93;99329.42;1768251;81;21035;-68
2020/12/23 05:12:59;;;;;;;25.02;12.23;;;;;;;-1.81;90.10;99365.79;1768041;81;21059;-69
2020/12/23 05:15:27;;;;;;;30.40;12.68;;;;;;;-1.83;90.31;99336.11;1768206;81;21433;-67
2020/12/23 05:17:54;;;;;;;28.25;13.55;;;;;;;-1.81;90.33;99378.84;1748852;81;21011;-66
2020/12/23 05:20:22;;;;;;;26.90;12.82;;;;;;;-1.85;90.46;99368.05;1768231;81;21059;-66
2020/12/23 05:22:51;;;;;;;27.27;12.25;;;;;;;-1.91;90.73;99362.56;1768073;81;21019;-66
2020/12/23 05:25:18;;;;;;;34.25;14.75;;;;;;;-1.92;90.87;99320.36;1768081;80;21474;-68
2020/12/23 05:27:50;;;;;;;27.35;14.13;;;;;;;-1.86;90.88;99339.71;1768004;80;21038;-68
2020/12/23 05:30:19;;;;;;;28.75;14.25;;;;;;;-1.85;90.84;99341.48;1768139;80;21023;-67
2020/12/23 05:32:47;;;;;;;29.70;14.03;;;;;;;-1.80;90.92;99345.19;1768227;81;21160;-66
2020/12/23 05:35:16;;;;;;;31.55;15.05;;;;;;;-1.76;90.53;99365.70;1768021;80;21015;-67
2020/12/23 05:37:44;;;;;;;31.27;13.90;;;;;;;-1.79;90.66;99308.59;1768343;81;21027;-66
2020/12/23 05:40:12;;;;;;;30.08;15.35;;;;;;;-1.75;90.64;99346.37;1768434;81;21046;-68
2020/12/23 05:42:40;;;;;;;29.75;14.80;;;;;;;-1.69;90.69;99335.38;1768198;81;21064;-66
2020/12/23 05:45:09;;;;;;;34.35;16.70;;;;;;;-1.64;90.40;99319.23;1767975;81;21493;-68
2020/12/23 05:47:37;;;;;;;31.48;15.08;;;;;;;-1.66;90.31;99315.32;1768266;81;20996;-68
2020/12/23 05:50:10;;;;;;;33.53;16.17;;;;;;;-1.66;90.34;99343.16;1768023;80;21083;-67
2020/12/23 05:52:38;;;;;;;32.28;14.70;;;;;;;-1.65;90.36;99328.48;1768237;81;21047;-66
2020/12/23 05:55:16;;;;;;;39.15;16.70;;;;;;;-1.67;90.41;99340.55;1768160;81;21449;-68
2020/12/23 05:57:44;;;;;;;35.60;17.73;;;;;;;-1.70;90.62;99307.46;1768218;81;21050;-66
2020/12/23 06:00:13;;;;;;;31.15;15.25;;;;;;;-1.66;90.75;99334.30;1768079;81;21010;-68
2020/12/23 06:02:52;;;;;;;31.68;15.10;;;;;;;-1.68;90.70;99302.08;1768275;81;21445;-68
2020/12/23 06:05:22;;;;;;;32.73;16.20;;;;;;;-1.69;90.79;99261.13;1757699;80;21138;-66
2020/12/23 06:07:51;;;;;;;31.87;15.20;;;;;;;-1.73;91.06;99300.55;1721027;82;21599;-66
2020/12/23 06:10:22;;;;;;;35.60;17.40;;;;;;;-1.76;91.23;99305.39;1749931;82;21058;-67
2020/12/23 06:12:54;;;;;;;38.28;17.48;;;;;;;-1.77;91.48;99309.58;1749949;82;21050;-66
2020/12/23 06:15:27;;;;;;;34.38;15.68;;;;;;;-1.73;91.50;99311.94;1745172;81;20999;-66
2020/12/23 06:17:59;;;;;;;36.95;15.80;;;;;;;-1.69;91.43;99325.25;1749724;81;21064;-69
2020/12/23 06:20:29;;;;;;;40.12;18.02;;;;;;;-1.66;91.49;99305.20;1749928;82;21035;-67
2020/12/23 06:22:58;;;;;;;41.33;19.52;;;;;;;-1.59;91.46;99331.39;1750012;82;21599;-68
2020/12/23 06:25:29;;;;;;;41.60;18.80;;;;;;;-1.56;91.22;99309.20;1747177;81;21168;-67
2020/12/23 06:27:58;;;;;;;41.02;18.92;;;;;;;-1.57;91.47;99270.37;1725889;81;21483;-67
2020/12/23 06:30:30;;;;;;;33.90;16.23;;;;;;;-1.54;91.46;99303.86;1699579;82;21235;-67
2020/12/23 06:33:01;;;;;;;36.25;16.50;;;;;;;-1.59;91.65;99277.38;1748817;82;21034;-67
2020/12/23 06:35:30;;;;;;;34.78;17.82;;;;;;;-1.63;91.97;99300.36;1713277;82;21205;-67
2020/12/23 06:37:57;;;;;;;42.78;19.90;;;;;;;-1.67;92.33;99264.24;1720246;83;21232;-67
2020/12/23 06:40:24;;;;;;;41.83;19.57;;;;;;;-1.69;92.62;99241.76;1720038;83;21197;-67
2020/12/23 06:42:52;;;;;;;37.38;19.50;;;;;;;-1.72;93.03;99284.97;1720145;83;21031;-69
2020/12/23 06:45:20;;;;;;;43.60;19.35;;;;;;;-1.65;93.24;99268.15;1720351;83;21201;-68
2020/12/23 06:47:50;;;;;;;41.58;19.27;;;;;;;-1.61;93.10;99281.06;1691887;83;21058;-67
2020/12/23 06:50:30;;;;;;;41.77;18.95;;;;;;;-1.64;93.10;99242.92;1720067;83;21054;-68
2020/12/23 06:52:59;;;;;;;44.20;19.55;;;;;;;-1.65;93.21;99303.17;1719994;83;21050;-66
2020/12/23 06:55:45;;;;;;;46.05;20.82;;;;;;;-1.60;93.57;99291.70;1720111;83;21074;-68
2020/12/23 06:58:37;;;;;;;45.33;19.35;;;;;;;-1.52;93.38;99256.75;1720079;83;21299;-67
2020/12/23 07:01:18;;;;;;;47.55;20.88;;;;;;;-1.46;93.13;99282.83;1720383;83;21500;-66
2020/12/23 07:03:47;;;;;;;43.85;20.57;;;;;;;-1.47;93.21;99297.55;1720182;83;21014;-68
2020/12/23 07:06:29;;;;;;;41.60;18.70;;;;;;;-1.41;93.28;99304.25;1714054;82;21098;-68
2020/12/23 07:09:03;;;;;;;41.40;19.77;;;;;;;-1.38;93.09;99305.70;1712474;84;21168;-66
2020/12/23 07:11:35;;;;;;;43.33;21.82;;;;;;;-1.34;93.13;99300.94;1712553;84;21042;-66
2020/12/23 07:14:04;;;;;;;;;;;;;;;-1.25;93.06;99312.02;1714932;84;21074;-68
2020/12/23 07:16:40;;;;;;;44.35;19.45;;;;;;;-1.15;92.60;99321.94;1712445;84;20284;-66
2020/12/23 07:19:08;;;;;;;44.95;20.48;;;;;;;-1.14;92.41;99305.98;1712435;84;21254;-67
2020/12/23 07:21:37;;;;;;;43.73;20.43;;;;;;;-1.12;92.39;99269.34;1712562;83;21485;-68
2020/12/23 07:24:06;;;;;;;44.48;20.40;;;;;;;-1.15;92.35;99268.77;1712283;83;21059;-71
2020/12/23 07:26:38;;;;;;;50.17;22.90;;;;;;;-1.15;92.59;99294.48;1712548;83;21051;-67
2020/12/23 07:29:10;;;;;;;44.33;21.23;;;;;;;-1.18;92.49;99298.97;1712494;83;21461;-68
2020/12/23 07:31:41;;;;;;;49.15;21.93;;;;;;;-1.19;92.72;99292.16;1712398;84;21019;-65
2020/12/23 07:34:10;;;;;;;50.00;21.37;;;;;;;-1.17;92.91;99299.47;1749657;82;21484;-72
2020/12/23 07:36:39;;;;;;;49.40;24.77;;;;;;;-1.16;92.75;99267.02;1750505;82;21205;-69
2020/12/23 07:39:06;;;;;;;47.93;22.45;;;;;;;-1.10;92.97;99290.19;1750720;82;21162;-66
2020/12/23 07:41:34;;;;;;;48.33;21.77;;;;;;;-1.08;92.70;99273.83;1750812;82;21446;-66
2020/12/23 07:44:04;;;;;;;52.25;24.07;;;;;;;-1.04;93.55;99283.74;1723635;82;21054;-67
2020/12/23 07:46:31;;;;;;;48.02;23.38;;;;;;;-0.98;93.80;99279.08;1723236;80;21042;-68
2020/12/23 07:48:59;;;;;;;46.25;22.70;;;;;;;-1.10;93.76;99282.59;1750558;81;21030;-69
2020/12/23 07:51:27;;;;;;;45.63;21.50;;;;;;;-1.07;94.10;99274.70;1750592;80;21039;-66
2020/12/23 07:53:54;;;;;;;51.73;24.12;;;;;;;-1.01;93.98;99289.02;1733520;80;21182;-69
2020/12/23 07:56:22;;;;;;;51.45;22.42;;;;;;;-1.01;93.89;99292.42;1682615;85;21047;-68
2020/12/23 07:58:50;;;;;;;50.52;23.42;;;;;;;-1.03;93.56;99274.12;1665756;86;21068;-66
2020/12/23 08:01:19;;;;;;;44.88;21.33;;;;;;;-1.05;93.13;99275.67;1668221;86;21168;-67
2020/12/23 08:03:47;;;;;;;50.75;23.40;;;;;;;-1.10;93.39;99259.80;1668216;86;21072;-66
2020/12/23 08:06:16;;;;;;;51.68;23.05;;;;;;;-1.02;93.48;99274.59;1676282;85;21092;-67
2020/12/23 08:08:44;;;;;;;44.88;21.45;;;;;;;-1.02;92.93;99274.59;1681123;85;21043;-67
2020/12/23 08:11:14;;;;;;;48.05;22.13;;;;;;;-1.03;92.95;99279.19;1680740;85;21521;-67
2020/12/23 08:13:43;;;;;;;49.98;22.50;;;;;;;-1.05;93.02;99257.55;1680560;85;21189;-67
2020/12/23 08:16:15;;;;;;;44.50;20.25;;;;;;;-1.04;92.74;99279.58;1680877;85;21103;-66
2020/12/23 08:18:43;;;;;;;;;;;;;;;-1.10;93.09;99270.31;1683400;85;21067;-67
2020/12/23 08:21:18;;;;;;;45.83;21.97;;;;;;;-1.09;93.18;99273.36;1680897;85;20507;-67
2020/12/23 08:23:47;;;;;;;50.38;24.23;;;;;;;-1.10;93.13;99269.05;1680924;85;21226;-66
2020/12/23 08:26:15;;;;;;;47.20;19.85;;;;;;;-1.11;93.39;99273.25;1681067;85;21075;-67
2020/12/23 08:28:47;;;;;;;49.93;22.45;;;;;;;-1.14;93.59;99283.20;1680933;85;21210;-67
2020/12/23 08:31:22;;;;;;;47.05;21.85;;;;;;;-1.19;93.73;99268.11;1681173;85;21080;-67
2020/12/23 08:33:50;;;;;;;48.52;22.17;;;;;;;-1.15;94.28;99270.42;1681205;85;21597;-67
2020/12/23 08:36:20;;;;;;;45.55;20.08;;;;;;;-1.21;93.93;99244.73;1680925;85;21209;-67
2020/12/23 08:38:49;;;;;;;44.08;20.57;;;;;;;-1.19;94.44;99260.52;1680951;85;21079;-67
2020/12/23 08:41:21;;;;;;;41.28;20.15;;;;;;;-1.13;94.57;99240.62;1681074;85;21099;-67
2020/12/23 08:43:50;;;;;;;42.33;19.42;;;;;;;-1.15;94.26;99241.30;1681095;85;21217;-67
2020/12/23 08:46:26;;;;;;;37.80;17.62;;;;;;;-1.16;94.46;99246.77;1680932;85;21080;-66
2020/12/23 08:48:55;;;;;;;44.20;22.07;;;;;;;-1.21;94.77;99235.88;1681073;85;21205;-68
2020/12/23 08:51:25;;;;;;;42.08;20.12;;;;;;;-1.24;95.06;99239.49;1681098;85;21198;-67
2020/12/23 08:53:58;;;;;;;42.70;18.57;;;;;;;-1.24;95.17;99226.44;1681069;85;21071;-67
2020/12/23 08:56:31;;;;;;;45.55;22.67;;;;;;;-1.25;95.19;99224.66;1680953;85;21639;-68
2020/12/23 08:59:04;;;;;;;42.45;19.25;;;;;;;-1.23;95.51;99228.57;1681227;85;21621;-66
2020/12/23 09:01:32;;;;;;;;;;;;;;;-1.25;95.45;99226.33;1683698;85;21059;-66
2020/12/23 09:04:11;;;;;;;38.38;18.73;;;;;;;-1.26;95.75;99214.47;1681085;85;20143;-67
2020/12/23 09:06:43;;;;;;;41.95;20.10;;;;;;;-1.22;95.94;99213.85;1680857;85;21172;-70
2020/12/23 09:09:17;;;;;;;40.90;19.62;;;;;;;-1.24;95.76;99217.58;1681024;85;21059;-68
2020/12/23 09:11:53;;;;;;;40.67;20.05;;;;;;;-1.25;96.08;99182.02;1681087;85;21205;-58
2020/12/23 09:14:37;;;;;;;38.25;17.80;;;;;;;-1.13;96.64;99216.95;1681064;85;21067;-58
2020/12/23 09:17:13;;;;;;;38.48;18.17;;;;;;;-1.10;96.38;99206.61;1681026;85;21210;-58
2020/12/23 09:19:54;;;;;;;38.30;18.35;;;;;;;-1.14;96.86;99180.64;1680508;85;21087;-58
2020/12/23 09:22:39;;;;;;;35.90;18.35;;;;;;;-1.01;97.29;99206.70;1681357;85;21194;-57
2020/12/23 09:25:26;;;;;;;37.70;18.92;;;;;;;-1.07;96.06;99187.33;1681010;85;21068;-57
2020/12/23 09:27:56;;;;;;;33.63;16.93;;;;;;;-1.13;96.42;99197.56;1681123;85;21039;-58
2020/12/23 09:30:43;;;;;;;36.10;18.92;;;;;;;-1.18;96.76;99192.61;1680911;85;21063;-57
2020/12/23 09:33:18;;;;;;;41.15;21.07;;;;;;;-1.20;97.10;99169.25;1680999;85;21629;-58
2020/12/23 09:35:49;;;;;;;35.23;15.63;;;;;;;-1.15;97.13;99196.59;1681061;85;21105;-57
2020/12/23 09:38:24;;;;;;;39.13;20.00;;;;;;;-1.18;96.90;99197.68;1679057;85;21225;-57
2020/12/23 09:40:55;;;;;;;36.77;18.07;;;;;;;-1.20;97.36;99178.98;1680906;85;21104;-57
2020/12/23 09:43:27;;;;;;;42.48;19.10;;;;;;;-1.15;97.13;99147.22;1681135;85;21198;-57
2020/12/23 09:45:58;;;;;;;37.98;16.57;;;;;;;-1.14;96.99;99166.70;1681330;85;21478;-58
2020/12/23 09:48:28;;;;;;;35.47;18.57;;;;;;;-1.15;97.00;99183.93;1681328;85;21084;-57
2020/12/23 09:50:56;;;;;;;43.50;19.77;;;;;;;-1.18;97.17;99171.09;1681168;85;21198;-57
2020/12/23 09:53:26;;;;;;;40.12;18.87;;;;;;;-1.19;97.17;99174.42;1681134;85;21056;-58
2020/12/23 09:55:56;;;;;;;35.90;17.67;;;;;;;-1.22;97.21;99164.48;1680995;85;21068;-58
2020/12/23 09:58:27;;;;;;;40.88;20.00;;;;;;;-1.20;97.52;99180.64;1680892;85;21064;-57
2020/12/23 10:00:55;;;;;;;37.90;18.50;;;;;;;-1.27;97.35;99140.17;1681240;85;21071;-57
2020/12/23 10:03:22;;;;;;;37.00;18.45;;;;;;;-1.26;97.59;99162.56;1681029;85;21193;-57
2020/12/23 10:05:50;;;;;;;32.10;18.27;;;;;;;-1.28;97.76;99135.88;1682613;85;21545;-57
2020/12/23 10:08:18;;;;;;;34.88;18.02;;;;;;;-1.29;97.87;99150.59;1688790;85;21173;-57
2020/12/23 10:10:46;;;;;;;40.17;20.85;;;;;;;-1.23;97.96;99125.63;1688661;85;21193;-59
2020/12/23 10:13:13;;;;;;;40.12;18.77;;;;;;;-1.15;98.12;99133.28;1688800;84;21486;-58
2020/12/23 10:15:42;;;;;;;34.48;17.62;;;;;;;-1.19;97.24;99136.84;1688957;85;21059;-57
2020/12/23 10:18:09;;;;;;;39.70;18.07;;;;;;;-1.19;97.48;99129.24;1688661;85;21209;-58
2020/12/23 10:20:38;;;;;;;36.10;18.00;;;;;;;-1.20;97.58;99150.26;1688763;85;21280;-57
2020/12/23 10:23:06;;;;;;;30.23;15.60;;;;;;;-1.18;97.58;99133.11;1688966;84;21063;-57
2020/12/23 10:25:34;;;;;;;35.88;19.20;;;;;;;-1.18;97.70;99117.92;1688639;84;21182;-57
2020/12/23 10:28:03;;;;;;;40.90;19.23;;;;;;;-1.21;97.95;99101.28;1688966;84;21193;-57
2020/12/23 10:30:30;;;;;;;39.33;19.50;;;;;;;-1.21;97.81;99115.21;1688881;85;21031;-58
2020/12/23 10:32:59;;;;;;;30.23;16.45;;;;;;;-1.14;97.97;99112.27;1686726;85;21242;-57
2020/12/23 10:35:27;;;;;;;35.28;18.40;;;;;;;-1.11;97.56;99132.70;1688853;85;21185;-58
2020/12/23 10:37:54;;;;;;;32.30;16.85;;;;;;;-1.13;97.53;99095.01;1689158;84;21047;-57
2020/12/23 10:40:22;;;;;;;37.30;16.27;;;;;;;-1.09;97.63;99115.08;1688726;85;21028;-58
2020/12/23 10:42:49;;;;;;;34.15;17.15;;;;;;;-0.99;97.75;99117.73;1688720;85;21209;-58
2020/12/23 10:45:17;;;;;;;35.17;19.35;;;;;;;-0.98;97.48;99104.30;1688839;85;21217;-57
2020/12/23 10:47:44;;;;;;;32.38;16.90;;;;;;;-0.94;97.50;99099.51;1688782;85;21051;-57
2020/12/23 10:50:12;;;;;;;34.58;18.05;;;;;;;-0.91;97.12;99095.88;1688766;84;21201;-57
2020/12/23 10:52:39;;;;;;;32.00;16.07;;;;;;;-0.92;97.16;99059.05;1688782;85;21067;-58
2020/12/23 10:55:08;;;;;;;33.05;17.82;;;;;;;-0.94;97.37;99088.48;1688899;84;21227;-61
2020/12/23 10:57:36;;;;;;;30.43;16.02;;;;;;;-0.92;97.27;99075.11;1688884;85;21200;-57
2020/12/23 11:00:06;;;;;;;30.30;15.60;;;;;;;-0.86;97.18;99096.16;1688886;84;21097;-57
2020/12/23 11:02:34;;;;;;;37.67;17.40;;;;;;;-0.82;96.71;99065.52;1688956;85;21036;-58
2020/12/23 11:05:01;;;;;;;28.52;14.47;;;;;;;-0.72;96.70;99091.47;1688788;84;21205;-58
2020/12/23 11:07:30;;;;;;;33.02;16.85;;;;;;;-0.68;96.31;99073.53;1688656;85;21122;-57
2020/12/23 11:10:00;;;;;;;31.05;16.62;;;;;;;-0.63;96.20;99094.94;1685980;85;21103;-57
2020/12/23 11:12:27;;;;;;;35.45;17.70;;;;;;;-0.62;96.22;99076.80;1688842;85;21226;-57
2020/12/23 11:14:56;;;;;;;31.20;15.90;;;;;;;-0.54;95.72;99100.91;1688597;84;21214;-57
2020/12/23 11:17:24;;;;;;;28.20;16.23;;;;;;;-0.57;95.80;99082.60;1688930;84;21181;-58
2020/12/23 11:19:53;;;;;;;32.98;17.67;;;;;;;-0.57;95.60;99090.61;1688926;85;21607;-58
2020/12/23 11:22:21;;;;;;;30.15;15.68;;;;;;;-0.48;95.99;99087.34;1688633;85;21197;-58
2020/12/23 11:24:51;;;;;;;34.15;18.50;;;;;;;-0.40;95.62;99102.98;1686498;85;21205;-57
2020/12/23 11:27:19;;;;;;;34.53;16.73;;;;;;;-0.38;95.29;99075.66;1688708;85;21121;-58
2020/12/23 11:29:46;;;;;;;35.10;16.60;;;;;;;-0.28;95.24;99084.25;1688622;85;21079;-57